sensor_id;sensor_type;location;lat;lon;timestamp;noise_LAeq;noise_LA_min;noise_LA_max;noise_LA01;noise_LA95
72805;Laerm;60920;48.748;19.142;2023-05-24T00:02:13;42.30;40.13;44.33;;
72805;Laerm;60920;48.748;19.142;2023-05-24T00:04:39;42.11;40.09;44.36;;
72805;Laerm;60920;48.748;19.142;2023-05-24T00:07:05;42.11;39.75;44.24;;
72805;Laerm;60920;48.748;19.142;2023-05-24T00:09:31;42.09;39.94;44.92;;
72805;Laerm;60920;48.748;19.142;2023-05-24T00:11:56;42.25;40.31;44.84;;
72805;Laerm;60920;48.748;19.142;2023-05-24T00:14:22;42.09;39.98;44.19;;
72805;Laerm;60920;48.748;19.142;2023-05-24T00:16:47;41.99;39.75;44.30;;
72805;Laerm;60920;48.748;19.142;2023-05-24T00:19:13;41.91;40.05;45.04;;
72805;Laerm;60920;48.748;19.142;2023-05-24T00:21:45;41.99;39.84;43.85;;
72805;Laerm;60920;48.748;19.142;2023-05-24T00:24:11;42.20;40.08;44.73;;
72805;Laerm;60920;48.748;19.142;2023-05-24T00:26:37;42.01;40.03;43.98;;
72805;Laerm;60920;48.748;19.142;2023-05-24T00:29:02;42.33;40.07;44.73;;
72805;Laerm;60920;48.748;19.142;2023-05-24T00:31:27;42.24;39.93;44.42;;
72805;Laerm;60920;48.748;19.142;2023-05-24T00:33:52;42.27;40.30;44.36;;
72805;Laerm;60920;48.748;19.142;2023-05-24T00:36:18;42.18;40.35;43.91;;
72805;Laerm;60920;48.748;19.142;2023-05-24T00:38:43;42.31;40.39;44.87;;
72805;Laerm;60920;48.748;19.142;2023-05-24T00:41:08;42.46;40.48;44.38;;
72805;Laerm;60920;48.748;19.142;2023-05-24T00:43:35;42.25;40.46;44.54;;
72805;Laerm;60920;48.748;19.142;2023-05-24T00:48:38;42.38;40.51;44.63;;
72805;Laerm;60920;48.748;19.142;2023-05-24T00:51:04;42.50;40.20;44.91;;
72805;Laerm;60920;48.748;19.142;2023-05-24T00:53:29;42.25;39.87;44.27;;
72805;Laerm;60920;48.748;19.142;2023-05-24T00:55:55;42.56;40.21;45.10;;
72805;Laerm;60920;48.748;19.142;2023-05-24T00:58:20;42.91;40.90;44.91;;
72805;Laerm;60920;48.748;19.142;2023-05-24T01:00:51;42.72;40.21;44.75;;
72805;Laerm;60920;48.748;19.142;2023-05-24T01:03:17;42.88;40.68;44.91;;
72805;Laerm;60920;48.748;19.142;2023-05-24T01:05:43;43.02;40.49;45.21;;
72805;Laerm;60920;48.748;19.142;2023-05-24T01:08:18;42.94;40.95;44.92;;
72805;Laerm;60920;48.748;19.142;2023-05-24T01:10:52;42.66;40.41;44.69;;
72805;Laerm;60920;48.748;19.142;2023-05-24T01:15:51;42.71;40.76;45.16;;
72805;Laerm;60920;48.748;19.142;2023-05-24T01:18:25;43.04;41.08;45.20;;
72805;Laerm;60920;48.748;19.142;2023-05-24T01:21:00;42.93;40.80;44.84;;
72805;Laerm;60920;48.748;19.142;2023-05-24T01:23:37;42.90;40.90;44.82;;
72805;Laerm;60920;48.748;19.142;2023-05-24T01:28:50;43.20;40.93;45.44;;
72805;Laerm;60920;48.748;19.142;2023-05-24T01:31:16;43.18;40.78;45.19;;
72805;Laerm;60920;48.748;19.142;2023-05-24T01:33:43;43.20;41.03;45.32;;
72805;Laerm;60920;48.748;19.142;2023-05-24T01:36:08;43.23;41.25;45.24;;
72805;Laerm;60920;48.748;19.142;2023-05-24T01:38:34;43.21;41.06;45.26;;
72805;Laerm;60920;48.748;19.142;2023-05-24T01:41:02;43.38;41.41;45.43;;
72805;Laerm;60920;48.748;19.142;2023-05-24T01:43:39;43.21;41.02;45.42;;
72805;Laerm;60920;48.748;19.142;2023-05-24T01:46:10;43.18;41.21;46.13;;
72805;Laerm;60920;48.748;19.142;2023-05-24T01:51:06;43.36;41.46;45.54;;
72805;Laerm;60920;48.748;19.142;2023-05-24T01:53:33;43.32;41.13;45.47;;
72805;Laerm;60920;48.748;19.142;2023-05-24T01:56:01;43.26;41.00;45.24;;
72805;Laerm;60920;48.748;19.142;2023-05-24T01:58:27;43.34;41.01;46.77;;
72805;Laerm;60920;48.748;19.142;2023-05-24T02:00:53;43.37;40.96;48.18;;
72805;Laerm;60920;48.748;19.142;2023-05-24T02:03:19;43.43;41.44;47.65;;
72805;Laerm;60920;48.748;19.142;2023-05-24T02:05:45;43.44;40.93;48.21;;
72805;Laerm;60920;48.748;19.142;2023-05-24T02:08:10;43.22;40.91;48.19;;
72805;Laerm;60920;48.748;19.142;2023-05-24T02:10:37;43.36;41.34;45.49;;
72805;Laerm;60920;48.748;19.142;2023-05-24T02:13:03;42.97;40.96;44.81;;
72805;Laerm;60920;48.748;19.142;2023-05-24T02:15:29;43.10;40.90;45.36;;
72805;Laerm;60920;48.748;19.142;2023-05-24T02:17:55;43.22;40.97;45.37;;
72805;Laerm;60920;48.748;19.142;2023-05-24T02:20:20;43.20;41.23;45.33;;
72805;Laerm;60920;48.748;19.142;2023-05-24T02:22:49;43.01;40.71;46.11;;
72805;Laerm;60920;48.748;19.142;2023-05-24T02:25:14;43.32;40.96;47.21;;
72805;Laerm;60920;48.748;19.142;2023-05-24T02:27:39;43.89;41.42;48.10;;
72805;Laerm;60920;48.748;19.142;2023-05-24T02:30:06;43.81;41.09;47.49;;
72805;Laerm;60920;48.748;19.142;2023-05-24T02:32:31;43.90;41.29;48.07;;
72805;Laerm;60920;48.748;19.142;2023-05-24T02:34:57;43.82;40.87;47.28;;
72805;Laerm;60920;48.748;19.142;2023-05-24T02:37:23;43.32;41.29;46.55;;
72805;Laerm;60920;48.748;19.142;2023-05-24T02:39:49;43.62;40.69;49.00;;
72805;Laerm;60920;48.748;19.142;2023-05-24T02:42:14;43.57;41.33;47.76;;
72805;Laerm;60920;48.748;19.142;2023-05-24T02:44:39;43.40;41.14;46.69;;
72805;Laerm;60920;48.748;19.142;2023-05-24T02:47:07;43.40;41.42;49.61;;
72805;Laerm;60920;48.748;19.142;2023-05-24T02:49:32;43.92;41.23;50.80;;
72805;Laerm;60920;48.748;19.142;2023-05-24T02:51:57;43.88;41.42;49.42;;
72805;Laerm;60920;48.748;19.142;2023-05-24T02:54:23;43.90;41.53;49.32;;
72805;Laerm;60920;48.748;19.142;2023-05-24T02:56:48;43.60;41.62;45.65;;
72805;Laerm;60920;48.748;19.142;2023-05-24T02:59:14;43.55;41.44;46.85;;
72805;Laerm;60920;48.748;19.142;2023-05-24T03:01:40;43.16;40.52;45.26;;
72805;Laerm;60920;48.748;19.142;2023-05-24T03:04:05;42.91;40.71;45.06;;
72805;Laerm;60920;48.748;19.142;2023-05-24T03:06:30;42.98;40.97;45.27;;
72805;Laerm;60920;48.748;19.142;2023-05-24T03:08:56;42.95;40.82;45.66;;
72805;Laerm;60920;48.748;19.142;2023-05-24T03:11:22;42.76;40.41;44.48;;
72805;Laerm;60920;48.748;19.142;2023-05-24T03:13:48;43.01;40.52;44.94;;
72805;Laerm;60920;48.748;19.142;2023-05-24T03:16:13;43.02;40.97;45.48;;
72805;Laerm;60920;48.748;19.142;2023-05-24T03:18:38;43.01;40.96;47.75;;
72805;Laerm;60920;48.748;19.142;2023-05-24T03:21:04;43.18;41.17;45.29;;
72805;Laerm;60920;48.748;19.142;2023-05-24T03:23:29;43.11;41.10;47.77;;
72805;Laerm;60920;48.748;19.142;2023-05-24T03:25:55;43.36;41.19;45.14;;
72805;Laerm;60920;48.748;19.142;2023-05-24T03:28:20;43.32;41.11;45.17;;
72805;Laerm;60920;48.748;19.142;2023-05-24T03:30:46;43.08;41.00;46.00;;
72805;Laerm;60920;48.748;19.142;2023-05-24T03:33:12;43.24;41.20;45.38;;
72805;Laerm;60920;48.748;19.142;2023-05-24T03:35:37;43.18;41.06;45.03;;
72805;Laerm;60920;48.748;19.142;2023-05-24T03:38:02;42.87;40.66;44.91;;
72805;Laerm;60920;48.748;19.142;2023-05-24T03:40:28;42.91;40.80;44.56;;
72805;Laerm;60920;48.748;19.142;2023-05-24T03:42:56;43.28;40.94;45.42;;
72805;Laerm;60920;48.748;19.142;2023-05-24T03:45:21;43.40;41.16;45.76;;
72805;Laerm;60920;48.748;19.142;2023-05-24T03:47:47;43.30;41.13;45.45;;
72805;Laerm;60920;48.748;19.142;2023-05-24T03:50:12;43.50;41.35;45.67;;
72805;Laerm;60920;48.748;19.142;2023-05-24T03:52:38;43.36;40.90;45.34;;
72805;Laerm;60920;48.748;19.142;2023-05-24T03:55:04;43.27;41.01;45.38;;
72805;Laerm;60920;48.748;19.142;2023-05-24T03:57:29;43.00;41.03;45.17;;
72805;Laerm;60920;48.748;19.142;2023-05-24T03:59:54;43.10;41.07;45.47;;
72805;Laerm;60920;48.748;19.142;2023-05-24T04:02:20;42.87;40.44;44.90;;
72805;Laerm;60920;48.748;19.142;2023-05-24T04:04:45;42.96;40.45;45.32;;
72805;Laerm;60920;48.748;19.142;2023-05-24T04:07:10;42.63;40.48;44.92;;
72805;Laerm;60920;48.748;19.142;2023-05-24T04:09:37;43.01;40.47;45.21;;
72805;Laerm;60920;48.748;19.142;2023-05-24T04:12:03;43.00;40.59;45.38;;
72805;Laerm;60920;48.748;19.142;2023-05-24T04:14:28;42.74;40.11;44.49;;
72805;Laerm;60920;48.748;19.142;2023-05-24T04:16:54;43.00;40.99;45.01;;
72805;Laerm;60920;48.748;19.142;2023-05-24T04:19:19;42.86;40.56;44.79;;
72805;Laerm;60920;48.748;19.142;2023-05-24T04:21:45;42.99;40.97;45.36;;
72805;Laerm;60920;48.748;19.142;2023-05-24T04:24:10;42.95;40.99;45.78;;
72805;Laerm;60920;48.748;19.142;2023-05-24T04:26:36;42.95;40.93;45.00;;
72805;Laerm;60920;48.748;19.142;2023-05-24T04:29:02;42.89;40.82;45.00;;
72805;Laerm;60920;48.748;19.142;2023-05-24T04:31:27;43.06;41.07;45.44;;
72805;Laerm;60920;48.748;19.142;2023-05-24T04:33:54;43.04;41.10;45.48;;
72805;Laerm;60920;48.748;19.142;2023-05-24T04:36:19;43.17;41.03;45.28;;
72805;Laerm;60920;48.748;19.142;2023-05-24T04:38:47;43.02;40.97;45.19;;
72805;Laerm;60920;48.748;19.142;2023-05-24T04:41:12;42.96;41.10;44.92;;
72805;Laerm;60920;48.748;19.142;2023-05-24T04:43:37;42.63;40.51;44.63;;
72805;Laerm;60920;48.748;19.142;2023-05-24T04:46:03;42.87;40.85;44.86;;
72805;Laerm;60920;48.748;19.142;2023-05-24T04:48:29;42.85;40.88;44.87;;
72805;Laerm;60920;48.748;19.142;2023-05-24T04:50:54;43.02;40.99;54.59;;
72805;Laerm;60920;48.748;19.142;2023-05-24T04:53:20;42.61;40.50;45.41;;
72805;Laerm;60920;48.748;19.142;2023-05-24T04:55:46;42.94;40.85;46.89;;
72805;Laerm;60920;48.748;19.142;2023-05-24T04:58:12;43.12;40.66;45.79;;
72805;Laerm;60920;48.748;19.142;2023-05-24T05:00:37;43.40;41.07;45.63;;
72805;Laerm;60920;48.748;19.142;2023-05-24T05:03:02;43.08;40.74;45.49;;
72805;Laerm;60920;48.748;19.142;2023-05-24T05:05:27;43.19;40.86;45.65;;
72805;Laerm;60920;48.748;19.142;2023-05-24T05:07:53;42.92;40.46;45.14;;
72805;Laerm;60920;48.748;19.142;2023-05-24T05:10:18;42.79;40.57;44.84;;
72805;Laerm;60920;48.748;19.142;2023-05-24T05:12:43;42.61;40.51;44.92;;
72805;Laerm;60920;48.748;19.142;2023-05-24T05:15:09;42.65;40.69;48.99;;
72805;Laerm;60920;48.748;19.142;2023-05-24T05:17:34;42.74;40.02;44.73;;
72805;Laerm;60920;48.748;19.142;2023-05-24T05:19:59;42.84;41.05;44.86;;
72805;Laerm;60920;48.748;19.142;2023-05-24T05:22:24;43.03;40.94;45.09;;
72805;Laerm;60920;48.748;19.142;2023-05-24T05:24:50;43.06;40.98;44.92;;
72805;Laerm;60920;48.748;19.142;2023-05-24T05:27:15;43.08;41.07;45.12;;
72805;Laerm;60920;48.748;19.142;2023-05-24T05:29:41;42.92;40.91;44.78;;
72805;Laerm;60920;48.748;19.142;2023-05-24T05:32:06;42.92;40.95;44.81;;
72805;Laerm;60920;48.748;19.142;2023-05-24T05:34:31;42.99;40.69;44.75;;
72805;Laerm;60920;48.748;19.142;2023-05-24T05:36:57;42.98;40.97;44.97;;
72805;Laerm;60920;48.748;19.142;2023-05-24T05:39:22;43.06;41.18;44.88;;
72805;Laerm;60920;48.748;19.142;2023-05-24T05:41:47;42.93;41.12;44.78;;
72805;Laerm;60920;48.748;19.142;2023-05-24T05:44:13;42.98;40.82;45.59;;
72805;Laerm;60920;48.748;19.142;2023-05-24T05:46:38;55.60;40.00;91.54;;
72805;Laerm;60920;48.748;19.142;2023-05-24T05:49:05;52.05;43.32;59.09;;
72805;Laerm;60920;48.748;19.142;2023-05-24T05:51:30;47.48;42.24;57.11;;
72805;Laerm;60920;48.748;19.142;2023-05-24T05:53:56;44.84;42.11;52.20;;
72805;Laerm;60920;48.748;19.142;2023-05-24T05:56:21;44.94;41.45;51.46;;
72805;Laerm;60920;48.748;19.142;2023-05-24T05:58:47;44.69;41.97;54.76;;
72805;Laerm;60920;48.748;19.142;2023-05-24T06:01:13;44.31;41.73;52.64;;
72805;Laerm;60920;48.748;19.142;2023-05-24T06:03:38;45.12;42.09;50.96;;
72805;Laerm;60920;48.748;19.142;2023-05-24T06:06:03;45.31;42.07;50.63;;
72805;Laerm;60920;48.748;19.142;2023-05-24T06:08:28;44.98;41.77;50.70;;
72805;Laerm;60920;48.748;19.142;2023-05-24T06:10:59;44.86;41.82;50.35;;
72805;Laerm;60920;48.748;19.142;2023-05-24T06:13:24;44.83;41.93;50.64;;
72805;Laerm;60920;48.748;19.142;2023-05-24T06:15:50;45.76;41.91;49.25;;
72805;Laerm;60920;48.748;19.142;2023-05-24T06:18:16;45.27;41.58;50.46;;
72805;Laerm;60920;48.748;19.142;2023-05-24T06:20:42;44.66;41.43;49.64;;
72805;Laerm;60920;48.748;19.142;2023-05-24T06:23:08;45.05;41.30;49.39;;
72805;Laerm;60920;48.748;19.142;2023-05-24T06:25:33;45.09;41.72;49.87;;
72805;Laerm;60920;48.748;19.142;2023-05-24T06:27:59;44.98;41.67;49.63;;
72805;Laerm;60920;48.748;19.142;2023-05-24T06:30:24;45.31;41.81;49.28;;
72805;Laerm;60920;48.748;19.142;2023-05-24T06:32:50;45.20;41.81;49.50;;
72805;Laerm;60920;48.748;19.142;2023-05-24T06:35:15;45.82;41.99;49.53;;
72805;Laerm;60920;48.748;19.142;2023-05-24T06:37:41;45.81;42.16;49.86;;
72805;Laerm;60920;48.748;19.142;2023-05-24T06:40:06;45.56;41.81;49.75;;
72805;Laerm;60920;48.748;19.142;2023-05-24T06:42:34;45.54;41.56;49.36;;
72805;Laerm;60920;48.748;19.142;2023-05-24T06:44:59;46.96;42.15;51.73;;
72805;Laerm;60920;48.748;19.142;2023-05-24T06:47:25;47.44;42.64;52.55;;
72805;Laerm;60920;48.748;19.142;2023-05-24T06:49:50;47.76;42.82;50.87;;
72805;Laerm;60920;48.748;19.142;2023-05-24T06:52:15;48.42;46.05;51.97;;
72805;Laerm;60920;48.748;19.142;2023-05-24T06:54:40;48.82;45.93;52.31;;
72805;Laerm;60920;48.748;19.142;2023-05-24T06:57:06;48.94;46.22;53.79;;
72805;Laerm;60920;48.748;19.142;2023-05-24T06:59:31;48.90;46.47;52.26;;
72805;Laerm;60920;48.748;19.142;2023-05-24T07:01:56;48.57;45.77;50.92;;
72805;Laerm;60920;48.748;19.142;2023-05-24T07:04:22;48.87;46.12;51.64;;
72805;Laerm;60920;48.748;19.142;2023-05-24T07:06:49;48.69;46.30;51.77;;
72805;Laerm;60920;48.748;19.142;2023-05-24T07:09:14;47.99;43.61;51.54;;
72805;Laerm;60920;48.748;19.142;2023-05-24T07:11:40;48.41;45.84;50.99;;
72805;Laerm;60920;48.748;19.142;2023-05-24T07:14:05;49.37;46.37;52.71;;
72805;Laerm;60920;48.748;19.142;2023-05-24T07:16:30;50.19;46.43;54.97;;
72805;Laerm;60920;48.748;19.142;2023-05-24T07:18:55;49.42;46.36;54.78;;
72805;Laerm;60920;48.748;19.142;2023-05-24T07:21:22;50.50;46.63;56.40;;
72805;Laerm;60920;48.748;19.142;2023-05-24T07:23:48;50.96;46.38;55.93;;
72805;Laerm;60920;48.748;19.142;2023-05-24T07:26:13;51.44;46.44;58.24;;
72805;Laerm;60920;48.748;19.142;2023-05-24T07:28:39;50.11;45.25;57.03;;
72805;Laerm;60920;48.748;19.142;2023-05-24T07:31:05;48.46;45.13;55.39;;
72805;Laerm;60920;48.748;19.142;2023-05-24T07:33:32;50.83;46.16;55.92;;
72805;Laerm;60920;48.748;19.142;2023-05-24T07:35:57;50.22;46.23;55.23;;
72805;Laerm;60920;48.748;19.142;2023-05-24T07:38:22;50.49;46.66;55.35;;
72805;Laerm;60920;48.748;19.142;2023-05-24T07:40:47;50.09;45.81;55.83;;
72805;Laerm;60920;48.748;19.142;2023-05-24T07:43:13;50.08;45.33;56.19;;
72805;Laerm;60920;48.748;19.142;2023-05-24T07:45:38;50.46;46.01;57.97;;
72805;Laerm;60920;48.748;19.142;2023-05-24T07:48:04;50.21;45.32;57.80;;
72805;Laerm;60920;48.748;19.142;2023-05-24T07:50:30;50.16;45.92;57.24;;
72805;Laerm;60920;48.748;19.142;2023-05-24T07:52:55;49.96;45.69;56.29;;
72805;Laerm;60920;48.748;19.142;2023-05-24T07:55:21;49.75;45.86;55.76;;
72805;Laerm;60920;48.748;19.142;2023-05-24T07:57:46;49.56;44.94;57.04;;
72805;Laerm;60920;48.748;19.142;2023-05-24T08:00:11;49.36;45.37;54.95;;
72805;Laerm;60920;48.748;19.142;2023-05-24T08:02:43;48.84;45.88;52.40;;
72805;Laerm;60920;48.748;19.142;2023-05-24T08:05:11;48.63;45.57;53.43;;
72805;Laerm;60920;48.748;19.142;2023-05-24T08:07:36;48.07;44.63;54.75;;
72805;Laerm;60920;48.748;19.142;2023-05-24T08:10:01;48.61;45.34;53.13;;
72805;Laerm;60920;48.748;19.142;2023-05-24T08:12:28;47.93;45.30;52.06;;
72805;Laerm;60920;48.748;19.142;2023-05-24T08:14:54;49.24;46.09;56.45;;
72805;Laerm;60920;48.748;19.142;2023-05-24T08:17:20;50.42;40.43;58.98;;
72805;Laerm;60920;48.748;19.142;2023-05-24T08:19:46;41.69;39.12;44.75;;
72805;Laerm;60920;48.748;19.142;2023-05-24T08:22:11;41.23;39.04;43.12;;
72805;Laerm;60920;48.748;19.142;2023-05-24T08:24:36;41.16;39.56;43.03;;
72805;Laerm;60920;48.748;19.142;2023-05-24T08:27:02;40.92;39.01;42.83;;
72805;Laerm;60920;48.748;19.142;2023-05-24T08:29:28;40.94;39.12;42.67;;
72805;Laerm;60920;48.748;19.142;2023-05-24T08:31:54;40.52;38.85;42.41;;
72805;Laerm;60920;48.748;19.142;2023-05-24T08:34:19;40.36;38.62;45.77;;
72805;Laerm;60920;48.748;19.142;2023-05-24T08:36:44;40.52;38.84;42.18;;
72805;Laerm;60920;48.748;19.142;2023-05-24T08:39:09;40.86;38.61;43.87;;
72805;Laerm;60920;48.748;19.142;2023-05-24T08:41:35;40.83;38.72;43.50;;
72805;Laerm;60920;48.748;19.142;2023-05-24T08:44:06;39.90;38.07;43.86;;
72805;Laerm;60920;48.748;19.142;2023-05-24T08:46:35;40.23;38.14;47.92;;
72805;Laerm;60920;48.748;19.142;2023-05-24T08:49:01;40.18;38.41;41.86;;
72805;Laerm;60920;48.748;19.142;2023-05-24T08:51:30;40.47;38.49;46.18;;
72805;Laerm;60920;48.748;19.142;2023-05-24T08:53:58;40.82;38.58;47.90;;
72805;Laerm;60920;48.748;19.142;2023-05-24T08:56:24;41.03;38.41;52.15;;
72805;Laerm;60920;48.748;19.142;2023-05-24T08:58:51;40.55;38.29;49.63;;
72805;Laerm;60920;48.748;19.142;2023-05-24T09:01:17;40.02;38.13;46.20;;
72805;Laerm;60920;48.748;19.142;2023-05-24T09:03:46;40.26;38.40;45.60;;
72805;Laerm;60920;48.748;19.142;2023-05-24T09:06:12;40.67;38.93;42.95;;
72805;Laerm;60920;48.748;19.142;2023-05-24T09:08:37;40.91;39.14;42.73;;
72805;Laerm;60920;48.748;19.142;2023-05-24T09:11:04;41.10;39.09;42.97;;
72805;Laerm;60920;48.748;19.142;2023-05-24T09:13:31;41.21;39.54;42.95;;
72805;Laerm;60920;48.748;19.142;2023-05-24T09:16:00;40.97;38.87;42.99;;
72805;Laerm;60920;48.748;19.142;2023-05-24T09:18:26;41.10;39.24;43.96;;
72805;Laerm;60920;48.748;19.142;2023-05-24T09:20:52;41.27;39.27;43.35;;
72805;Laerm;60920;48.748;19.142;2023-05-24T09:23:17;41.23;38.92;43.02;;
72805;Laerm;60920;48.748;19.142;2023-05-24T09:25:43;40.62;38.73;46.23;;
72805;Laerm;60920;48.748;19.142;2023-05-24T09:28:08;40.79;38.69;46.67;;
72805;Laerm;60920;48.748;19.142;2023-05-24T09:30:37;40.45;38.12;54.32;;
72805;Laerm;60920;48.748;19.142;2023-05-24T09:33:02;40.60;38.10;43.09;;
72805;Laerm;60920;48.748;19.142;2023-05-24T09:35:29;40.67;38.36;48.77;;
72805;Laerm;60920;48.748;19.142;2023-05-24T09:37:58;40.80;38.63;49.34;;
72805;Laerm;60920;48.748;19.142;2023-05-24T09:40:24;40.78;38.54;43.30;;
72805;Laerm;60920;48.748;19.142;2023-05-24T09:43:01;40.99;38.81;44.34;;
72805;Laerm;60920;48.748;19.142;2023-05-24T09:45:26;41.57;38.69;48.99;;
72805;Laerm;60920;48.748;19.142;2023-05-24T09:47:52;41.88;39.71;44.72;;
72805;Laerm;60920;48.748;19.142;2023-05-24T09:50:17;41.81;39.51;44.43;;
72805;Laerm;60920;48.748;19.142;2023-05-24T09:52:42;41.70;39.22;44.15;;
72805;Laerm;60920;48.748;19.142;2023-05-24T09:55:14;40.55;38.45;45.10;;
72805;Laerm;60920;48.748;19.142;2023-05-24T09:57:41;41.36;38.73;44.44;;
72805;Laerm;60920;48.748;19.142;2023-05-24T10:00:07;42.27;39.44;49.59;;
72805;Laerm;60920;48.748;19.142;2023-05-24T10:02:40;42.01;39.33;48.83;;
72805;Laerm;60920;48.748;19.142;2023-05-24T10:05:06;41.64;38.66;48.94;;
72805;Laerm;60920;48.748;19.142;2023-05-24T10:07:34;41.92;39.58;44.97;;
72805;Laerm;60920;48.748;19.142;2023-05-24T10:10:00;42.34;39.09;45.69;;
72805;Laerm;60920;48.748;19.142;2023-05-24T10:12:26;40.69;38.32;45.73;;
72805;Laerm;60920;48.748;19.142;2023-05-24T10:14:52;39.14;37.10;43.20;;
72805;Laerm;60920;48.748;19.142;2023-05-24T10:17:21;39.06;36.90;43.73;;
72805;Laerm;60920;48.748;19.142;2023-05-24T10:19:46;39.63;36.90;50.12;;
72805;Laerm;60920;48.748;19.142;2023-05-24T10:22:12;40.19;36.66;53.11;;
72805;Laerm;60920;48.748;19.142;2023-05-24T10:24:38;38.43;36.44;45.39;;
72805;Laerm;60920;48.748;19.142;2023-05-24T10:27:06;38.63;36.27;45.94;;
72805;Laerm;60920;48.748;19.142;2023-05-24T10:29:43;39.23;36.98;43.42;;
72805;Laerm;60920;48.748;19.142;2023-05-24T10:32:12;39.79;37.34;42.55;;
72805;Laerm;60920;48.748;19.142;2023-05-24T10:34:38;42.88;38.76;50.09;;
72805;Laerm;60920;48.748;19.142;2023-05-24T10:37:04;43.25;40.31;46.56;;
72805;Laerm;60920;48.748;19.142;2023-05-24T10:39:31;42.34;39.58;45.10;;
72805;Laerm;60920;48.748;19.142;2023-05-24T10:41:57;42.44;40.19;49.95;;
72805;Laerm;60920;48.748;19.142;2023-05-24T10:44:27;40.88;38.79;44.89;;
72805;Laerm;60920;48.748;19.142;2023-05-24T10:47:12;39.72;37.69;44.54;;
72805;Laerm;60920;48.748;19.142;2023-05-24T10:49:48;38.94;35.93;43.87;;
72805;Laerm;60920;48.748;19.142;2023-05-24T10:52:15;40.12;37.86;43.17;;
72805;Laerm;60920;48.748;19.142;2023-05-24T10:54:40;40.50;38.23;47.87;;
72805;Laerm;60920;48.748;19.142;2023-05-24T10:57:25;40.38;38.07;43.72;;
72805;Laerm;60920;48.748;19.142;2023-05-24T10:59:51;38.74;35.87;44.96;;
72805;Laerm;60920;48.748;19.142;2023-05-24T11:02:16;38.71;36.57;45.75;;
72805;Laerm;60920;48.748;19.142;2023-05-24T11:04:47;38.93;36.49;46.17;;
72805;Laerm;60920;48.748;19.142;2023-05-24T11:07:13;39.15;37.21;43.91;;
72805;Laerm;60920;48.748;19.142;2023-05-24T11:09:39;38.76;36.91;42.08;;
72805;Laerm;60920;48.748;19.142;2023-05-24T11:12:15;39.74;36.70;44.50;;
72805;Laerm;60920;48.748;19.142;2023-05-24T11:14:47;38.46;36.14;44.93;;
72805;Laerm;60920;48.748;19.142;2023-05-24T11:17:13;38.49;35.67;46.84;;
72805;Laerm;60920;48.748;19.142;2023-05-24T11:19:44;39.08;36.86;50.31;;
72805;Laerm;60920;48.748;19.142;2023-05-24T11:22:11;39.71;37.75;45.48;;
72805;Laerm;60920;48.748;19.142;2023-05-24T11:24:39;38.78;36.42;43.31;;
72805;Laerm;60920;48.748;19.142;2023-05-24T11:27:05;39.29;36.63;50.18;;
72805;Laerm;60920;48.748;19.142;2023-05-24T11:29:31;38.64;35.31;50.40;;
72805;Laerm;60920;48.748;19.142;2023-05-24T11:31:57;37.93;34.66;47.08;;
72805;Laerm;60920;48.748;19.142;2023-05-24T11:34:28;38.79;33.85;56.97;;
72805;Laerm;60920;48.748;19.142;2023-05-24T11:36:53;37.66;33.96;55.82;;
72805;Laerm;60920;48.748;19.142;2023-05-24T11:39:19;37.42;33.31;49.95;;
72805;Laerm;60920;48.748;19.142;2023-05-24T11:41:44;38.34;34.29;51.80;;
72805;Laerm;60920;48.748;19.142;2023-05-24T11:44:11;37.95;34.24;52.30;;
72805;Laerm;60920;48.748;19.142;2023-05-24T11:46:41;37.91;34.61;54.03;;
72805;Laerm;60920;48.748;19.142;2023-05-24T11:49:10;38.12;34.68;47.45;;
72805;Laerm;60920;48.748;19.142;2023-05-24T11:51:36;39.03;35.18;48.19;;
72805;Laerm;60920;48.748;19.142;2023-05-24T11:54:01;39.61;35.72;48.07;;
72805;Laerm;60920;48.748;19.142;2023-05-24T11:56:30;39.35;35.39;48.44;;
72805;Laerm;60920;48.748;19.142;2023-05-24T11:59:08;37.81;34.01;48.41;;
72805;Laerm;60920;48.748;19.142;2023-05-24T12:01:37;38.89;35.18;48.67;;
72805;Laerm;60920;48.748;19.142;2023-05-24T12:04:03;38.63;35.53;56.46;;
72805;Laerm;60920;48.748;19.142;2023-05-24T12:06:33;38.69;35.32;46.12;;
72805;Laerm;60920;48.748;19.142;2023-05-24T12:08:58;38.55;35.58;46.39;;
72805;Laerm;60920;48.748;19.142;2023-05-24T12:11:24;38.30;35.56;45.13;;
72805;Laerm;60920;48.748;19.142;2023-05-24T12:13:49;38.89;36.29;43.92;;
72805;Laerm;60920;48.748;19.142;2023-05-24T12:16:14;38.56;36.20;43.97;;
72805;Laerm;60920;48.748;19.142;2023-05-24T12:18:40;38.68;36.00;45.43;;
72805;Laerm;60920;48.748;19.142;2023-05-24T12:21:07;38.32;36.07;42.84;;
72805;Laerm;60920;48.748;19.142;2023-05-24T12:23:32;38.42;35.52;46.63;;
72805;Laerm;60920;48.748;19.142;2023-05-24T12:25:59;38.57;35.63;44.72;;
72805;Laerm;60920;48.748;19.142;2023-05-24T12:28:25;37.96;35.76;47.32;;
72805;Laerm;60920;48.748;19.142;2023-05-24T12:30:50;38.08;36.02;42.10;;
72805;Laerm;60920;48.748;19.142;2023-05-24T12:33:19;38.44;35.94;42.21;;
72805;Laerm;60920;48.748;19.142;2023-05-24T12:35:45;38.42;36.12;42.57;;
72805;Laerm;60920;48.748;19.142;2023-05-24T12:38:11;38.74;36.71;43.19;;
72805;Laerm;60920;48.748;19.142;2023-05-24T12:40:39;39.27;36.66;44.18;;
72805;Laerm;60920;48.748;19.142;2023-05-24T12:43:06;39.25;36.22;48.99;;
72805;Laerm;60920;48.748;19.142;2023-05-24T12:45:31;39.58;36.76;48.21;;
72805;Laerm;60920;48.748;19.142;2023-05-24T12:47:57;39.45;36.51;49.12;;
72805;Laerm;60920;48.748;19.142;2023-05-24T12:50:26;39.53;36.21;51.03;;
72805;Laerm;60920;48.748;19.142;2023-05-24T12:52:52;39.98;36.83;50.83;;
72805;Laerm;60920;48.748;19.142;2023-05-24T12:55:21;39.36;36.47;46.15;;
72805;Laerm;60920;48.748;19.142;2023-05-24T12:57:47;38.88;36.37;48.50;;
72805;Laerm;60920;48.748;19.142;2023-05-24T13:00:17;38.69;36.57;44.86;;
72805;Laerm;60920;48.748;19.142;2023-05-24T13:02:42;38.56;36.30;44.92;;
72805;Laerm;60920;48.748;19.142;2023-05-24T13:05:08;38.63;36.11;44.46;;
72805;Laerm;60920;48.748;19.142;2023-05-24T13:07:34;39.03;36.55;45.84;;
72805;Laerm;60920;48.748;19.142;2023-05-24T13:10:00;38.73;36.35;46.00;;
72805;Laerm;60920;48.748;19.142;2023-05-24T13:12:25;38.42;35.90;45.97;;
72805;Laerm;60920;48.748;19.142;2023-05-24T13:14:51;39.01;36.69;45.55;;
72805;Laerm;60920;48.748;19.142;2023-05-24T13:17:17;39.23;36.75;45.44;;
72805;Laerm;60920;48.748;19.142;2023-05-24T13:19:42;39.85;38.04;45.01;;
72805;Laerm;60920;48.748;19.142;2023-05-24T13:22:07;40.90;39.03;51.96;;
72805;Laerm;60920;48.748;19.142;2023-05-24T13:24:33;41.28;39.00;51.67;;
72805;Laerm;60920;48.748;19.142;2023-05-24T13:26:58;41.10;38.85;52.29;;
72805;Laerm;60920;48.748;19.142;2023-05-24T13:29:24;48.63;39.21;73.37;;
72805;Laerm;60920;48.748;19.142;2023-05-24T13:31:49;49.17;41.87;75.22;;
72805;Laerm;60920;48.748;19.142;2023-05-24T13:34:14;44.81;40.96;66.33;;
72805;Laerm;60920;48.748;19.142;2023-05-24T13:36:41;43.15;40.93;63.39;;
72805;Laerm;60920;48.748;19.142;2023-05-24T13:39:07;43.77;40.32;66.31;;